Salamonie, Indiana
Current Conditions -  °F | °C
As of 7:55 AM on Friday 24 Oct 2014 (Local Time) from KHHG Reporting Station
Broken Clouds Broken Clouds  
Wind Chill: 42°   Ceiling: 8500
Heat Index: 42°   Visibility: 10mi
Dew Point: 40°   Wind: 0mph
Humidity: 91%   Direction: NA
Pressure: 30.08"   Gusts: NA
Location:  40.6897°N, 85.3916°W
Report Text: KHHG 241155Z AUTO 00000KT 10SM SCT070 BKN085 06/04 A3008 RMK AO2 T00550042 10060 20024
Loading
Personal Weather Stations






























Interactive Weather Map
Tropical Storm Tracking
New forecast layout! Learn more

10-Day Weather Forecast

Advertisements
Track Severe Weather on mobile